sensor_id;sensor_type;location;lat;lon;timestamp;P1;durP1;ratioP1;P2;durP2;ratioP2
5357;SDS011;2702;51.014;7.170;2022-12-19T00:02:03;32.70;;;20.07;;
5357;SDS011;2702;51.014;7.170;2022-12-19T00:04:29;31.27;;;19.63;;
5357;SDS011;2702;51.014;7.170;2022-12-19T00:06:57;27.20;;;19.52;;
5357;SDS011;2702;51.014;7.170;2022-12-19T00:09:23;29.37;;;19.93;;
5357;SDS011;2702;51.014;7.170;2022-12-19T00:11:49;32.33;;;19.40;;
5357;SDS011;2702;51.014;7.170;2022-12-19T00:14:15;36.40;;;21.90;;
5357;SDS011;2702;51.014;7.170;2022-12-19T00:16:41;32.75;;;19.52;;
5357;SDS011;2702;51.014;7.170;2022-12-19T00:19:08;36.70;;;20.20;;
5357;SDS011;2702;51.014;7.170;2022-12-19T00:21:35;33.97;;;20.63;;
5357;SDS011;2702;51.014;7.170;2022-12-19T00:24:02;30.40;;;20.08;;
5357;SDS011;2702;51.014;7.170;2022-12-19T00:26:30;30.90;;;19.30;;
5357;SDS011;2702;51.014;7.170;2022-12-19T00:28:58;33.15;;;20.25;;
5357;SDS011;2702;51.014;7.170;2022-12-19T00:31:30;32.38;;;19.33;;
5357;SDS011;2702;51.014;7.170;2022-12-19T00:33:57;35.95;;;21.60;;
5357;SDS011;2702;51.014;7.170;2022-12-19T00:36:25;31.08;;;20.08;;
5357;SDS011;2702;51.014;7.170;2022-12-19T00:38:54;30.80;;;19.65;;
5357;SDS011;2702;51.014;7.170;2022-12-19T00:41:23;31.90;;;18.65;;
5357;SDS011;2702;51.014;7.170;2022-12-19T00:43:51;31.08;;;19.35;;
5357;SDS011;2702;51.014;7.170;2022-12-19T00:46:21;31.00;;;19.52;;
5357;SDS011;2702;51.014;7.170;2022-12-19T00:48:48;32.33;;;20.45;;
5357;SDS011;2702;51.014;7.170;2022-12-19T00:51:15;30.67;;;20.85;;
5357;SDS011;2702;51.014;7.170;2022-12-19T00:53:43;33.05;;;20.50;;
5357;SDS011;2702;51.014;7.170;2022-12-19T00:56:12;33.85;;;19.85;;
5357;SDS011;2702;51.014;7.170;2022-12-19T00:58:40;35.20;;;20.75;;
5357;SDS011;2702;51.014;7.170;2022-12-19T01:01:17;31.77;;;20.90;;
5357;SDS011;2702;51.014;7.170;2022-12-19T01:03:43;30.48;;;19.60;;
5357;SDS011;2702;51.014;7.170;2022-12-19T01:06:10;34.90;;;20.60;;
5357;SDS011;2702;51.014;7.170;2022-12-19T01:08:36;34.40;;;20.90;;
5357;SDS011;2702;51.014;7.170;2022-12-19T01:11:02;30.73;;;19.63;;
5357;SDS011;2702;51.014;7.170;2022-12-19T01:13:30;29.05;;;20.40;;
5357;SDS011;2702;51.014;7.170;2022-12-19T01:16:03;37.13;;;22.05;;
5357;SDS011;2702;51.014;7.170;2022-12-19T01:18:31;38.38;;;21.20;;
5357;SDS011;2702;51.014;7.170;2022-12-19T01:20:58;33.70;;;20.27;;
5357;SDS011;2702;51.014;7.170;2022-12-19T01:23:25;29.15;;;19.02;;
5357;SDS011;2702;51.014;7.170;2022-12-19T01:25:52;30.92;;;20.42;;
5357;SDS011;2702;51.014;7.170;2022-12-19T01:28:19;33.30;;;20.77;;
5357;SDS011;2702;51.014;7.170;2022-12-19T01:30:46;38.13;;;22.58;;
5357;SDS011;2702;51.014;7.170;2022-12-19T01:33:13;36.83;;;20.92;;
5357;SDS011;2702;51.014;7.170;2022-12-19T01:35:40;34.10;;;21.45;;
5357;SDS011;2702;51.014;7.170;2022-12-19T01:38:11;36.90;;;21.15;;
5357;SDS011;2702;51.014;7.170;2022-12-19T01:40:38;32.47;;;20.17;;
5357;SDS011;2702;51.014;7.170;2022-12-19T01:43:04;31.42;;;20.88;;
5357;SDS011;2702;51.014;7.170;2022-12-19T01:45:36;31.63;;;21.15;;
5357;SDS011;2702;51.014;7.170;2022-12-19T01:48:10;30.50;;;19.83;;
5357;SDS011;2702;51.014;7.170;2022-12-19T01:51:02;31.00;;;19.90;;
5357;SDS011;2702;51.014;7.170;2022-12-19T01:54:00;32.13;;;20.15;;
5357;SDS011;2702;51.014;7.170;2022-12-19T01:56:33;32.38;;;21.30;;
5357;SDS011;2702;51.014;7.170;2022-12-19T01:59:09;33.47;;;21.20;;
5357;SDS011;2702;51.014;7.170;2022-12-19T02:01:39;32.53;;;19.80;;
5357;SDS011;2702;51.014;7.170;2022-12-19T02:04:06;32.97;;;21.02;;
5357;SDS011;2702;51.014;7.170;2022-12-19T02:06:34;37.53;;;22.40;;
5357;SDS011;2702;51.014;7.170;2022-12-19T02:09:00;30.63;;;19.77;;
5357;SDS011;2702;51.014;7.170;2022-12-19T02:11:26;34.40;;;20.77;;
5357;SDS011;2702;51.014;7.170;2022-12-19T02:13:52;36.33;;;21.73;;
5357;SDS011;2702;51.014;7.170;2022-12-19T02:16:25;29.73;;;20.80;;
5357;SDS011;2702;51.014;7.170;2022-12-19T02:22:18;36.13;;;20.90;;
5357;SDS011;2702;51.014;7.170;2022-12-19T02:30:16;31.10;;;18.90;;
5357;SDS011;2702;51.014;7.170;2022-12-19T02:32:58;33.95;;;19.67;;
5357;SDS011;2702;51.014;7.170;2022-12-19T02:35:44;33.42;;;20.55;;
5357;SDS011;2702;51.014;7.170;2022-12-19T02:40:48;36.20;;;20.33;;
5357;SDS011;2702;51.014;7.170;2022-12-19T02:43:37;36.45;;;20.27;;
5357;SDS011;2702;51.014;7.170;2022-12-19T02:46:06;32.22;;;21.38;;
5357;SDS011;2702;51.014;7.170;2022-12-19T02:48:35;35.35;;;20.85;;
5357;SDS011;2702;51.014;7.170;2022-12-19T02:51:02;33.47;;;20.27;;
5357;SDS011;2702;51.014;7.170;2022-12-19T02:53:29;31.33;;;21.00;;
5357;SDS011;2702;51.014;7.170;2022-12-19T02:56:01;35.67;;;23.38;;
5357;SDS011;2702;51.014;7.170;2022-12-19T02:58:54;35.15;;;20.40;;
5357;SDS011;2702;51.014;7.170;2022-12-19T03:01:56;34.05;;;20.40;;
5357;SDS011;2702;51.014;7.170;2022-12-19T03:12:59;34.72;;;20.80;;
5357;SDS011;2702;51.014;7.170;2022-12-19T03:15:33;32.90;;;20.30;;
5357;SDS011;2702;51.014;7.170;2022-12-19T03:18:00;28.95;;;19.77;;
5357;SDS011;2702;51.014;7.170;2022-12-19T03:20:42;32.92;;;21.20;;
5357;SDS011;2702;51.014;7.170;2022-12-19T03:23:09;34.20;;;21.25;;
5357;SDS011;2702;51.014;7.170;2022-12-19T03:25:36;29.52;;;18.88;;
5357;SDS011;2702;51.014;7.170;2022-12-19T03:28:06;33.22;;;19.63;;
5357;SDS011;2702;51.014;7.170;2022-12-19T03:30:38;36.63;;;20.60;;
5357;SDS011;2702;51.014;7.170;2022-12-19T03:33:07;33.72;;;21.05;;
5357;SDS011;2702;51.014;7.170;2022-12-19T03:35:36;36.75;;;21.65;;
5357;SDS011;2702;51.014;7.170;2022-12-19T03:38:03;30.05;;;19.50;;
5357;SDS011;2702;51.014;7.170;2022-12-19T03:40:31;30.80;;;20.02;;
5357;SDS011;2702;51.014;7.170;2022-12-19T03:43:01;37.38;;;21.52;;
5357;SDS011;2702;51.014;7.170;2022-12-19T03:53:57;28.60;;;17.48;;
5357;SDS011;2702;51.014;7.170;2022-12-19T03:56:40;32.15;;;20.33;;
5357;SDS011;2702;51.014;7.170;2022-12-19T04:01:41;35.90;;;20.10;;
5357;SDS011;2702;51.014;7.170;2022-12-19T04:04:09;29.02;;;19.45;;
5357;SDS011;2702;51.014;7.170;2022-12-19T04:06:37;32.65;;;20.70;;
5357;SDS011;2702;51.014;7.170;2022-12-19T04:09:04;28.55;;;19.48;;
5357;SDS011;2702;51.014;7.170;2022-12-19T04:11:33;31.02;;;20.30;;
5357;SDS011;2702;51.014;7.170;2022-12-19T04:14:05;35.55;;;22.33;;
5357;SDS011;2702;51.014;7.170;2022-12-19T04:16:39;28.33;;;19.60;;
5357;SDS011;2702;51.014;7.170;2022-12-19T04:22:12;39.40;;;21.92;;
5357;SDS011;2702;51.014;7.170;2022-12-19T04:24:42;33.00;;;21.02;;
5357;SDS011;2702;51.014;7.170;2022-12-19T04:27:10;30.02;;;20.33;;
5357;SDS011;2702;51.014;7.170;2022-12-19T04:29:38;33.58;;;21.10;;
5357;SDS011;2702;51.014;7.170;2022-12-19T04:32:05;37.03;;;22.23;;
5357;SDS011;2702;51.014;7.170;2022-12-19T04:34:33;35.25;;;20.45;;
5357;SDS011;2702;51.014;7.170;2022-12-19T04:36:59;37.97;;;22.47;;
5357;SDS011;2702;51.014;7.170;2022-12-19T04:39:26;35.33;;;21.15;;
5357;SDS011;2702;51.014;7.170;2022-12-19T04:41:52;35.42;;;21.65;;
5357;SDS011;2702;51.014;7.170;2022-12-19T04:44:18;34.07;;;21.93;;
5357;SDS011;2702;51.014;7.170;2022-12-19T04:46:44;37.47;;;21.40;;
5357;SDS011;2702;51.014;7.170;2022-12-19T04:49:10;37.90;;;23.63;;
5357;SDS011;2702;51.014;7.170;2022-12-19T04:51:36;36.83;;;21.70;;
5357;SDS011;2702;51.014;7.170;2022-12-19T04:54:02;35.80;;;21.47;;
5357;SDS011;2702;51.014;7.170;2022-12-19T04:56:28;33.90;;;22.00;;
5357;SDS011;2702;51.014;7.170;2022-12-19T04:58:57;36.27;;;22.43;;
5357;SDS011;2702;51.014;7.170;2022-12-19T05:01:24;34.70;;;20.15;;
5357;SDS011;2702;51.014;7.170;2022-12-19T05:03:50;39.05;;;22.73;;
5357;SDS011;2702;51.014;7.170;2022-12-19T05:06:17;38.83;;;23.85;;
5357;SDS011;2702;51.014;7.170;2022-12-19T05:08:43;36.92;;;22.75;;
5357;SDS011;2702;51.014;7.170;2022-12-19T05:11:11;31.98;;;21.30;;
5357;SDS011;2702;51.014;7.170;2022-12-19T05:13:39;34.25;;;23.95;;
5357;SDS011;2702;51.014;7.170;2022-12-19T05:16:06;37.72;;;22.75;;
5357;SDS011;2702;51.014;7.170;2022-12-19T05:18:34;34.55;;;22.20;;
5357;SDS011;2702;51.014;7.170;2022-12-19T05:21:01;37.10;;;22.75;;
5357;SDS011;2702;51.014;7.170;2022-12-19T05:23:28;38.50;;;23.60;;
5357;SDS011;2702;51.014;7.170;2022-12-19T05:25:58;34.90;;;22.88;;
5357;SDS011;2702;51.014;7.170;2022-12-19T05:28:25;37.03;;;21.63;;
5357;SDS011;2702;51.014;7.170;2022-12-19T05:30:51;36.70;;;23.30;;
5357;SDS011;2702;51.014;7.170;2022-12-19T05:33:25;38.40;;;23.98;;
5357;SDS011;2702;51.014;7.170;2022-12-19T05:35:51;38.50;;;23.50;;
5357;SDS011;2702;51.014;7.170;2022-12-19T05:38:17;37.20;;;23.90;;
5357;SDS011;2702;51.014;7.170;2022-12-19T05:40:43;38.60;;;24.77;;
5357;SDS011;2702;51.014;7.170;2022-12-19T05:43:09;40.70;;;24.23;;
5357;SDS011;2702;51.014;7.170;2022-12-19T05:45:35;38.90;;;23.87;;
5357;SDS011;2702;51.014;7.170;2022-12-19T05:48:03;35.13;;;22.70;;
5357;SDS011;2702;51.014;7.170;2022-12-19T05:50:29;35.60;;;23.77;;
5357;SDS011;2702;51.014;7.170;2022-12-19T05:52:55;36.83;;;23.40;;
5357;SDS011;2702;51.014;7.170;2022-12-19T05:55:20;37.53;;;23.43;;
5357;SDS011;2702;51.014;7.170;2022-12-19T05:57:46;37.22;;;23.20;;
5357;SDS011;2702;51.014;7.170;2022-12-19T06:00:12;36.87;;;22.70;;
5357;SDS011;2702;51.014;7.170;2022-12-19T06:02:40;37.25;;;23.95;;
5357;SDS011;2702;51.014;7.170;2022-12-19T06:05:07;40.30;;;24.63;;
5357;SDS011;2702;51.014;7.170;2022-12-19T06:07:33;38.10;;;22.75;;
5357;SDS011;2702;51.014;7.170;2022-12-19T06:09:59;37.78;;;22.75;;
5357;SDS011;2702;51.014;7.170;2022-12-19T06:12:25;38.50;;;23.17;;
5357;SDS011;2702;51.014;7.170;2022-12-19T06:14:51;37.13;;;23.73;;
5357;SDS011;2702;51.014;7.170;2022-12-19T06:17:17;38.00;;;25.03;;
5357;SDS011;2702;51.014;7.170;2022-12-19T06:19:43;35.53;;;23.73;;
5357;SDS011;2702;51.014;7.170;2022-12-19T06:22:09;36.70;;;24.67;;
5357;SDS011;2702;51.014;7.170;2022-12-19T06:24:35;35.80;;;23.40;;
5357;SDS011;2702;51.014;7.170;2022-12-19T06:27:01;41.90;;;26.17;;
5357;SDS011;2702;51.014;7.170;2022-12-19T06:29:27;41.87;;;26.40;;
5357;SDS011;2702;51.014;7.170;2022-12-19T06:31:53;37.83;;;24.43;;
5357;SDS011;2702;51.014;7.170;2022-12-19T06:34:18;38.20;;;24.90;;
5357;SDS011;2702;51.014;7.170;2022-12-19T06:36:44;39.43;;;23.60;;
5357;SDS011;2702;51.014;7.170;2022-12-19T06:39:13;36.40;;;23.40;;
5357;SDS011;2702;51.014;7.170;2022-12-19T06:41:41;39.42;;;25.13;;
5357;SDS011;2702;51.014;7.170;2022-12-19T06:44:25;42.80;;;26.00;;
5357;SDS011;2702;51.014;7.170;2022-12-19T06:46:51;42.45;;;25.02;;
5357;SDS011;2702;51.014;7.170;2022-12-19T06:49:18;34.45;;;22.23;;
5357;SDS011;2702;51.014;7.170;2022-12-19T06:51:44;37.53;;;24.70;;
5357;SDS011;2702;51.014;7.170;2022-12-19T06:54:11;35.92;;;23.98;;
5357;SDS011;2702;51.014;7.170;2022-12-19T06:56:38;39.45;;;23.27;;
5357;SDS011;2702;51.014;7.170;2022-12-19T06:59:06;37.45;;;23.85;;
5357;SDS011;2702;51.014;7.170;2022-12-19T07:01:41;38.30;;;22.97;;
5357;SDS011;2702;51.014;7.170;2022-12-19T07:04:17;45.03;;;24.30;;
5357;SDS011;2702;51.014;7.170;2022-12-19T07:06:52;33.80;;;24.67;;
5357;SDS011;2702;51.014;7.170;2022-12-19T07:09:18;35.08;;;23.17;;
5357;SDS011;2702;51.014;7.170;2022-12-19T07:11:44;37.30;;;23.73;;
5357;SDS011;2702;51.014;7.170;2022-12-19T07:14:10;35.17;;;24.47;;
5357;SDS011;2702;51.014;7.170;2022-12-19T07:16:36;38.70;;;25.63;;
5357;SDS011;2702;51.014;7.170;2022-12-19T07:19:02;37.85;;;24.38;;
5357;SDS011;2702;51.014;7.170;2022-12-19T07:21:29;39.63;;;24.85;;
5357;SDS011;2702;51.014;7.170;2022-12-19T07:23:55;37.80;;;24.30;;
5357;SDS011;2702;51.014;7.170;2022-12-19T07:26:21;37.57;;;23.17;;
5357;SDS011;2702;51.014;7.170;2022-12-19T07:28:47;35.53;;;23.50;;
5357;SDS011;2702;51.014;7.170;2022-12-19T07:31:13;37.70;;;23.40;;
5357;SDS011;2702;51.014;7.170;2022-12-19T07:33:39;39.70;;;24.00;;
5357;SDS011;2702;51.014;7.170;2022-12-19T07:36:05;37.93;;;23.10;;
5357;SDS011;2702;51.014;7.170;2022-12-19T07:38:31;40.92;;;23.63;;
5357;SDS011;2702;51.014;7.170;2022-12-19T07:40:59;40.80;;;22.30;;
5357;SDS011;2702;51.014;7.170;2022-12-19T07:43:26;37.17;;;24.40;;
5357;SDS011;2702;51.014;7.170;2022-12-19T07:45:55;40.72;;;24.23;;
5357;SDS011;2702;51.014;7.170;2022-12-19T07:48:22;38.70;;;24.65;;
5357;SDS011;2702;51.014;7.170;2022-12-19T07:50:48;37.05;;;23.30;;
5357;SDS011;2702;51.014;7.170;2022-12-19T07:53:14;39.87;;;25.40;;
5357;SDS011;2702;51.014;7.170;2022-12-19T07:55:41;41.53;;;24.13;;
5357;SDS011;2702;51.014;7.170;2022-12-19T07:58:07;35.03;;;23.07;;
5357;SDS011;2702;51.014;7.170;2022-12-19T08:00:35;38.50;;;24.20;;
5357;SDS011;2702;51.014;7.170;2022-12-19T08:03:01;42.75;;;26.17;;
5357;SDS011;2702;51.014;7.170;2022-12-19T08:05:28;38.22;;;24.23;;
5357;SDS011;2702;51.014;7.170;2022-12-19T08:07:55;40.20;;;23.55;;
5357;SDS011;2702;51.014;7.170;2022-12-19T08:10:20;43.43;;;24.17;;
5357;SDS011;2702;51.014;7.170;2022-12-19T08:12:47;38.15;;;23.88;;
5357;SDS011;2702;51.014;7.170;2022-12-19T08:15:14;38.75;;;25.25;;
5357;SDS011;2702;51.014;7.170;2022-12-19T08:17:40;41.33;;;24.20;;
5357;SDS011;2702;51.014;7.170;2022-12-19T08:20:06;39.30;;;25.33;;
5357;SDS011;2702;51.014;7.170;2022-12-19T08:22:33;39.85;;;24.85;;
5357;SDS011;2702;51.014;7.170;2022-12-19T08:24:59;39.13;;;24.57;;
5357;SDS011;2702;51.014;7.170;2022-12-19T08:27:25;36.67;;;22.20;;
5357;SDS011;2702;51.014;7.170;2022-12-19T08:29:51;39.77;;;25.23;;
5357;SDS011;2702;51.014;7.170;2022-12-19T08:32:17;33.03;;;23.35;;
5357;SDS011;2702;51.014;7.170;2022-12-19T08:34:44;36.23;;;23.70;;
5357;SDS011;2702;51.014;7.170;2022-12-19T08:37:10;40.97;;;24.87;;
5357;SDS011;2702;51.014;7.170;2022-12-19T08:39:36;39.27;;;24.80;;
5357;SDS011;2702;51.014;7.170;2022-12-19T08:42:02;40.10;;;24.17;;
5357;SDS011;2702;51.014;7.170;2022-12-19T08:44:28;36.87;;;24.47;;
5357;SDS011;2702;51.014;7.170;2022-12-19T08:46:54;39.67;;;23.43;;
5357;SDS011;2702;51.014;7.170;2022-12-19T08:49:20;40.87;;;23.87;;
5357;SDS011;2702;51.014;7.170;2022-12-19T08:51:46;37.90;;;23.13;;
5357;SDS011;2702;51.014;7.170;2022-12-19T08:54:12;40.67;;;23.87;;
5357;SDS011;2702;51.014;7.170;2022-12-19T08:56:38;36.97;;;22.70;;
5357;SDS011;2702;51.014;7.170;2022-12-19T08:59:04;36.10;;;22.40;;
5357;SDS011;2702;51.014;7.170;2022-12-19T09:01:30;34.03;;;22.50;;
5357;SDS011;2702;51.014;7.170;2022-12-19T09:03:57;35.27;;;21.70;;
5357;SDS011;2702;51.014;7.170;2022-12-19T09:06:24;35.28;;;22.25;;
5357;SDS011;2702;51.014;7.170;2022-12-19T09:08:50;39.43;;;22.90;;
5357;SDS011;2702;51.014;7.170;2022-12-19T09:11:17;36.22;;;22.25;;
5357;SDS011;2702;51.014;7.170;2022-12-19T09:13:44;39.37;;;24.50;;
5357;SDS011;2702;51.014;7.170;2022-12-19T09:16:12;31.90;;;21.60;;
5357;SDS011;2702;51.014;7.170;2022-12-19T09:18:44;36.80;;;21.67;;
5357;SDS011;2702;51.014;7.170;2022-12-19T09:21:12;33.17;;;21.60;;
5357;SDS011;2702;51.014;7.170;2022-12-19T09:23:40;34.30;;;23.03;;
5357;SDS011;2702;51.014;7.170;2022-12-19T09:26:10;35.70;;;21.57;;
5357;SDS011;2702;51.014;7.170;2022-12-19T09:28:38;29.60;;;21.37;;
5357;SDS011;2702;51.014;7.170;2022-12-19T09:31:15;35.50;;;21.70;;
5357;SDS011;2702;51.014;7.170;2022-12-19T09:33:45;36.37;;;22.30;;
5357;SDS011;2702;51.014;7.170;2022-12-19T09:36:12;33.13;;;22.20;;
5357;SDS011;2702;51.014;7.170;2022-12-19T09:38:40;35.77;;;22.93;;
5357;SDS011;2702;51.014;7.170;2022-12-19T09:44:08;33.03;;;21.00;;
5357;SDS011;2702;51.014;7.170;2022-12-19T09:47:09;34.20;;;22.43;;
5357;SDS011;2702;51.014;7.170;2022-12-19T09:49:42;33.97;;;23.50;;
5357;SDS011;2702;51.014;7.170;2022-12-19T09:54:48;37.83;;;23.03;;
5357;SDS011;2702;51.014;7.170;2022-12-19T10:00:20;38.87;;;23.53;;
5357;SDS011;2702;51.014;7.170;2022-12-19T10:02:48;37.00;;;23.03;;
5357;SDS011;2702;51.014;7.170;2022-12-19T10:05:25;34.67;;;23.93;;
5357;SDS011;2702;51.014;7.170;2022-12-19T10:08:50;31.60;;;21.17;;
5357;SDS011;2702;51.014;7.170;2022-12-19T10:11:06;33.57;;;24.00;;
5357;SDS011;2702;51.014;7.170;2022-12-19T10:19:29;32.43;;;21.83;;
5357;SDS011;2702;51.014;7.170;2022-12-19T10:30:06;36.07;;;22.83;;
5357;SDS011;2702;51.014;7.170;2022-12-19T10:35:21;37.17;;;23.20;;
5357;SDS011;2702;51.014;7.170;2022-12-19T10:43:12;33.97;;;22.73;;
5357;SDS011;2702;51.014;7.170;2022-12-19T10:45:50;36.10;;;22.03;;
5357;SDS011;2702;51.014;7.170;2022-12-19T10:48:21;32.40;;;21.63;;
5357;SDS011;2702;51.014;7.170;2022-12-19T10:50:48;35.00;;;21.50;;
5357;SDS011;2702;51.014;7.170;2022-12-19T10:53:15;32.30;;;22.63;;
5357;SDS011;2702;51.014;7.170;2022-12-19T10:55:50;45.83;;;34.00;;
5357;SDS011;2702;51.014;7.170;2022-12-19T10:58:19;41.43;;;25.77;;
5357;SDS011;2702;51.014;7.170;2022-12-19T11:03:29;38.00;;;24.83;;
5357;SDS011;2702;51.014;7.170;2022-12-19T11:06:00;32.87;;;23.10;;
5357;SDS011;2702;51.014;7.170;2022-12-19T11:08:34;36.00;;;24.20;;
5357;SDS011;2702;51.014;7.170;2022-12-19T11:16:06;33.87;;;23.00;;
5357;SDS011;2702;51.014;7.170;2022-12-19T11:18:42;35.50;;;24.40;;
5357;SDS011;2702;51.014;7.170;2022-12-19T11:21:29;37.50;;;25.27;;
5357;SDS011;2702;51.014;7.170;2022-12-19T11:24:00;39.73;;;26.40;;
5357;SDS011;2702;51.014;7.170;2022-12-19T11:26:34;34.27;;;25.33;;
5357;SDS011;2702;51.014;7.170;2022-12-19T11:31:45;35.77;;;22.33;;
5357;SDS011;2702;51.014;7.170;2022-12-19T11:34:20;36.50;;;23.97;;
5357;SDS011;2702;51.014;7.170;2022-12-19T11:36:48;57.63;;;37.20;;
5357;SDS011;2702;51.014;7.170;2022-12-19T11:39:36;34.83;;;23.77;;
5357;SDS011;2702;51.014;7.170;2022-12-19T11:42:20;36.23;;;22.30;;
5357;SDS011;2702;51.014;7.170;2022-12-19T11:50:10;30.20;;;22.63;;
5357;SDS011;2702;51.014;7.170;2022-12-19T11:52:51;30.80;;;20.23;;
5357;SDS011;2702;51.014;7.170;2022-12-19T11:58:10;29.77;;;20.97;;
5357;SDS011;2702;51.014;7.170;2022-12-19T12:00:44;32.60;;;24.50;;
5357;SDS011;2702;51.014;7.170;2022-12-19T12:06:15;30.20;;;24.20;;
5357;SDS011;2702;51.014;7.170;2022-12-19T12:12:03;26.90;;;18.97;;
5357;SDS011;2702;51.014;7.170;2022-12-19T12:14:13;28.33;;;19.53;;
5357;SDS011;2702;51.014;7.170;2022-12-19T12:16:46;22.37;;;17.03;;
5357;SDS011;2702;51.014;7.170;2022-12-19T12:19:36;25.53;;;19.23;;
5357;SDS011;2702;51.014;7.170;2022-12-19T12:30:16;28.00;;;18.07;;
5357;SDS011;2702;51.014;7.170;2022-12-19T12:35:45;26.43;;;20.80;;
5357;SDS011;2702;51.014;7.170;2022-12-19T12:46:33;25.20;;;18.33;;
5357;SDS011;2702;51.014;7.170;2022-12-19T12:49:04;32.37;;;27.37;;
5357;SDS011;2702;51.014;7.170;2022-12-19T12:51:31;37.60;;;30.80;;
5357;SDS011;2702;51.014;7.170;2022-12-19T12:54:01;35.27;;;26.83;;
5357;SDS011;2702;51.014;7.170;2022-12-19T12:56:34;42.73;;;32.03;;
5357;SDS011;2702;51.014;7.170;2022-12-19T12:59:05;47.97;;;38.47;;
5357;SDS011;2702;51.014;7.170;2022-12-19T13:01:58;29.60;;;22.93;;
5357;SDS011;2702;51.014;7.170;2022-12-19T13:04:42;40.37;;;29.60;;
5357;SDS011;2702;51.014;7.170;2022-12-19T13:07:27;22.13;;;17.57;;
5357;SDS011;2702;51.014;7.170;2022-12-19T13:10:06;22.40;;;18.43;;
5357;SDS011;2702;51.014;7.170;2022-12-19T13:12:59;22.90;;;17.70;;
5357;SDS011;2702;51.014;7.170;2022-12-19T13:15:39;21.10;;;16.50;;
5357;SDS011;2702;51.014;7.170;2022-12-19T13:21:03;24.03;;;19.40;;
5357;SDS011;2702;51.014;7.170;2022-12-19T13:25:59;25.30;;;21.70;;
5357;SDS011;2702;51.014;7.170;2022-12-19T13:34:17;23.60;;;17.10;;
5357;SDS011;2702;51.014;7.170;2022-12-19T13:36:51;20.50;;;15.30;;
5357;SDS011;2702;51.014;7.170;2022-12-19T13:39:22;20.40;;;16.80;;
5357;SDS011;2702;51.014;7.170;2022-12-19T13:41:58;30.07;;;26.90;;
5357;SDS011;2702;51.014;7.170;2022-12-19T13:44:45;20.07;;;15.73;;
5357;SDS011;2702;51.014;7.170;2022-12-19T13:47:14;22.33;;;17.40;;
5357;SDS011;2702;51.014;7.170;2022-12-19T13:49:41;26.50;;;21.80;;
5357;SDS011;2702;51.014;7.170;2022-12-19T13:52:09;18.50;;;15.37;;
5357;SDS011;2702;51.014;7.170;2022-12-19T13:54:43;22.17;;;19.10;;
5357;SDS011;2702;51.014;7.170;2022-12-19T13:57:33;24.70;;;19.60;;
5357;SDS011;2702;51.014;7.170;2022-12-19T14:00:05;20.87;;;18.23;;
5357;SDS011;2702;51.014;7.170;2022-12-19T14:02:43;28.33;;;22.50;;
5357;SDS011;2702;51.014;7.170;2022-12-19T14:05:21;25.77;;;22.20;;
5357;SDS011;2702;51.014;7.170;2022-12-19T14:07:56;25.87;;;20.80;;
5357;SDS011;2702;51.014;7.170;2022-12-19T14:10:27;22.20;;;19.80;;
5357;SDS011;2702;51.014;7.170;2022-12-19T14:12:56;22.90;;;20.00;;
5357;SDS011;2702;51.014;7.170;2022-12-19T14:15:44;19.83;;;16.83;;
5357;SDS011;2702;51.014;7.170;2022-12-19T14:18:16;16.80;;;14.63;;
5357;SDS011;2702;51.014;7.170;2022-12-19T14:20:48;20.27;;;15.40;;
5357;SDS011;2702;51.014;7.170;2022-12-19T14:23:15;20.70;;;15.00;;
5357;SDS011;2702;51.014;7.170;2022-12-19T14:25:44;19.47;;;17.43;;
5357;SDS011;2702;51.014;7.170;2022-12-19T14:28:16;23.77;;;15.30;;
5357;SDS011;2702;51.014;7.170;2022-12-19T14:30:56;21.23;;;15.63;;
5357;SDS011;2702;51.014;7.170;2022-12-19T14:33:48;19.30;;;14.33;;
5357;SDS011;2702;51.014;7.170;2022-12-19T14:36:48;17.37;;;14.43;;
5357;SDS011;2702;51.014;7.170;2022-12-19T14:39:15;18.27;;;15.30;;
5357;SDS011;2702;51.014;7.170;2022-12-19T14:41:43;19.70;;;14.10;;
5357;SDS011;2702;51.014;7.170;2022-12-19T14:44:42;15.60;;;11.87;;
5357;SDS011;2702;51.014;7.170;2022-12-19T14:47:22;14.40;;;11.70;;
5357;SDS011;2702;51.014;7.170;2022-12-19T14:50:25;15.53;;;12.43;;
5357;SDS011;2702;51.014;7.170;2022-12-19T14:55:45;14.90;;;12.13;;
5357;SDS011;2702;51.014;7.170;2022-12-19T14:58:16;15.53;;;13.93;;
5357;SDS011;2702;51.014;7.170;2022-12-19T15:00:48;16.40;;;13.03;;
5357;SDS011;2702;51.014;7.170;2022-12-19T15:03:25;19.60;;;14.03;;
5357;SDS011;2702;51.014;7.170;2022-12-19T15:06:04;17.33;;;13.37;;
5357;SDS011;2702;51.014;7.170;2022-12-19T15:08:33;13.70;;;11.33;;
5357;SDS011;2702;51.014;7.170;2022-12-19T15:11:02;16.17;;;14.03;;
5357;SDS011;2702;51.014;7.170;2022-12-19T15:13:55;17.83;;;13.40;;
5357;SDS011;2702;51.014;7.170;2022-12-19T15:16:31;17.33;;;13.30;;
5357;SDS011;2702;51.014;7.170;2022-12-19T15:19:00;22.53;;;20.40;;
5357;SDS011;2702;51.014;7.170;2022-12-19T15:21:28;18.73;;;16.77;;
5357;SDS011;2702;51.014;7.170;2022-12-19T15:23:54;23.40;;;21.10;;
5357;SDS011;2702;51.014;7.170;2022-12-19T15:26:28;30.93;;;27.73;;
5357;SDS011;2702;51.014;7.170;2022-12-19T15:28:56;24.07;;;21.53;;
5357;SDS011;2702;51.014;7.170;2022-12-19T15:34:21;20.00;;;17.77;;
5357;SDS011;2702;51.014;7.170;2022-12-19T15:36:50;24.83;;;22.13;;
5357;SDS011;2702;51.014;7.170;2022-12-19T15:39:17;17.77;;;15.47;;
5357;SDS011;2702;51.014;7.170;2022-12-19T15:41:45;17.23;;;14.13;;
5357;SDS011;2702;51.014;7.170;2022-12-19T15:46:49;18.87;;;16.87;;
5357;SDS011;2702;51.014;7.170;2022-12-19T15:49:15;18.00;;;14.90;;
5357;SDS011;2702;51.014;7.170;2022-12-19T15:51:43;17.37;;;15.57;;
5357;SDS011;2702;51.014;7.170;2022-12-19T15:54:09;27.43;;;24.63;;
5357;SDS011;2702;51.014;7.170;2022-12-19T15:56:36;30.07;;;26.77;;
5357;SDS011;2702;51.014;7.170;2022-12-19T15:59:04;41.83;;;36.57;;
5357;SDS011;2702;51.014;7.170;2022-12-19T16:01:46;28.20;;;24.40;;
5357;SDS011;2702;51.014;7.170;2022-12-19T16:04:12;38.50;;;30.93;;
5357;SDS011;2702;51.014;7.170;2022-12-19T16:06:37;28.43;;;22.40;;
5357;SDS011;2702;51.014;7.170;2022-12-19T16:09:23;17.00;;;14.87;;
5357;SDS011;2702;51.014;7.170;2022-12-19T16:11:52;25.37;;;20.70;;
5357;SDS011;2702;51.014;7.170;2022-12-19T16:14:21;32.07;;;26.07;;
5357;SDS011;2702;51.014;7.170;2022-12-19T16:16:50;40.27;;;30.40;;
5357;SDS011;2702;51.014;7.170;2022-12-19T16:19:24;19.40;;;14.87;;
5357;SDS011;2702;51.014;7.170;2022-12-19T16:21:51;28.50;;;23.73;;
5357;SDS011;2702;51.014;7.170;2022-12-19T16:24:17;16.33;;;14.60;;
5357;SDS011;2702;51.014;7.170;2022-12-19T16:26:45;16.50;;;14.27;;
5357;SDS011;2702;51.014;7.170;2022-12-19T16:29:22;21.87;;;19.40;;
5357;SDS011;2702;51.014;7.170;2022-12-19T16:31:53;22.47;;;17.70;;
5357;SDS011;2702;51.014;7.170;2022-12-19T16:34:20;13.50;;;11.37;;
5357;SDS011;2702;51.014;7.170;2022-12-19T16:36:48;14.87;;;13.37;;
5357;SDS011;2702;51.014;7.170;2022-12-19T16:39:14;16.70;;;14.90;;
5357;SDS011;2702;51.014;7.170;2022-12-19T16:41:41;14.97;;;11.43;;
5357;SDS011;2702;51.014;7.170;2022-12-19T16:44:15;14.63;;;12.50;;
5357;SDS011;2702;51.014;7.170;2022-12-19T16:46:43;13.43;;;11.20;;
5357;SDS011;2702;51.014;7.170;2022-12-19T16:49:11;13.57;;;10.10;;
5357;SDS011;2702;51.014;7.170;2022-12-19T16:51:39;12.90;;;9.20;;
5357;SDS011;2702;51.014;7.170;2022-12-19T16:54:06;11.70;;;9.43;;
5357;SDS011;2702;51.014;7.170;2022-12-19T16:56:33;12.10;;;9.97;;
5357;SDS011;2702;51.014;7.170;2022-12-19T16:59:02;12.33;;;10.10;;
5357;SDS011;2702;51.014;7.170;2022-12-19T17:01:32;9.10;;;8.20;;
5357;SDS011;2702;51.014;7.170;2022-12-19T17:03:58;11.13;;;9.00;;
5357;SDS011;2702;51.014;7.170;2022-12-19T17:06:25;8.93;;;8.00;;
5357;SDS011;2702;51.014;7.170;2022-12-19T17:08:51;10.80;;;9.07;;
5357;SDS011;2702;51.014;7.170;2022-12-19T17:11:20;11.20;;;9.37;;
5357;SDS011;2702;51.014;7.170;2022-12-19T17:13:49;9.80;;;8.43;;
5357;SDS011;2702;51.014;7.170;2022-12-19T17:16:18;10.13;;;9.13;;